Brownsdale, Minnesota
Current Conditions -  °F | °C
As of 12:55 PM on Saturday 25 Oct 2014 (Local Time) from KAUM Reporting Station
Clear Clear  
Wind Chill: 63°   Ceiling: Unl
Heat Index: 63°   Visibility: 10mi
Dew Point: 32°   Wind: 13mph
Humidity: 32%   Direction: 330°NNW
Pressure: 30.07"   Gusts: 22mph
Location:  43.74°N, 92.87°W
Report Text: KAUM 251755Z AUTO 33011G19KT 10SM CLR 17/00 A3007 RMK AO2
Loading
Personal Weather Stations






























Interactive Weather Map
Tropical Storm Tracking
New forecast layout! Learn more

10-Day Weather Forecast

Advertisements
Track Severe Weather on mobile